sensor_id;sensor_type;location;lat;lon;timestamp;P1;durP1;ratioP1;P2;durP2;ratioP2
77220;SDS011;66217;50.004;8.266;2023-02-28T00:02:24;5.03;;;2.00;;
77220;SDS011;66217;50.004;8.266;2023-02-28T00:04:49;3.75;;;2.20;;
77220;SDS011;66217;50.004;8.266;2023-02-28T00:07:18;2.28;;;1.80;;
77220;SDS011;66217;50.004;8.266;2023-02-28T00:09:44;3.60;;;2.30;;
77220;SDS011;66217;50.004;8.266;2023-02-28T00:12:09;2.45;;;2.08;;
77220;SDS011;66217;50.004;8.266;2023-02-28T00:14:38;4.78;;;2.25;;
77220;SDS011;66217;50.004;8.266;2023-02-28T00:17:06;5.68;;;2.30;;
77220;SDS011;66217;50.004;8.266;2023-02-28T00:19:31;4.10;;;2.25;;
77220;SDS011;66217;50.004;8.266;2023-02-28T00:21:56;4.05;;;2.40;;
77220;SDS011;66217;50.004;8.266;2023-02-28T00:24:22;3.15;;;2.30;;
77220;SDS011;66217;50.004;8.266;2023-02-28T00:26:47;5.80;;;2.55;;
77220;SDS011;66217;50.004;8.266;2023-02-28T00:29:13;4.40;;;2.42;;
77220;SDS011;66217;50.004;8.266;2023-02-28T00:31:38;4.72;;;1.98;;
77220;SDS011;66217;50.004;8.266;2023-02-28T00:34:03;3.92;;;2.53;;
77220;SDS011;66217;50.004;8.266;2023-02-28T00:36:30;3.30;;;2.40;;
77220;SDS011;66217;50.004;8.266;2023-02-28T00:38:55;4.45;;;2.80;;
77220;SDS011;66217;50.004;8.266;2023-02-28T00:41:21;4.55;;;2.90;;
77220;SDS011;66217;50.004;8.266;2023-02-28T00:43:46;3.08;;;2.13;;
77220;SDS011;66217;50.004;8.266;2023-02-28T00:46:12;7.40;;;2.70;;
77220;SDS011;66217;50.004;8.266;2023-02-28T00:48:37;4.15;;;2.22;;
77220;SDS011;66217;50.004;8.266;2023-02-28T00:51:03;6.22;;;2.83;;
77220;SDS011;66217;50.004;8.266;2023-02-28T00:53:30;4.57;;;2.50;;
77220;SDS011;66217;50.004;8.266;2023-02-28T00:55:57;5.00;;;2.53;;
77220;SDS011;66217;50.004;8.266;2023-02-28T00:58:24;5.50;;;2.70;;
77220;SDS011;66217;50.004;8.266;2023-02-28T01:00:51;4.22;;;2.50;;
77220;SDS011;66217;50.004;8.266;2023-02-28T01:03:17;4.32;;;2.55;;
77220;SDS011;66217;50.004;8.266;2023-02-28T01:05:43;5.95;;;2.60;;
77220;SDS011;66217;50.004;8.266;2023-02-28T01:08:09;3.47;;;2.60;;
77220;SDS011;66217;50.004;8.266;2023-02-28T01:10:35;3.13;;;2.30;;
77220;SDS011;66217;50.004;8.266;2023-02-28T01:13:02;3.92;;;2.83;;
77220;SDS011;66217;50.004;8.266;2023-02-28T01:15:27;5.13;;;2.90;;
77220;SDS011;66217;50.004;8.266;2023-02-28T01:17:53;4.55;;;2.47;;
77220;SDS011;66217;50.004;8.266;2023-02-28T01:20:20;4.68;;;2.92;;
77220;SDS011;66217;50.004;8.266;2023-02-28T01:22:46;5.55;;;3.38;;
77220;SDS011;66217;50.004;8.266;2023-02-28T01:25:12;3.67;;;2.78;;
77220;SDS011;66217;50.004;8.266;2023-02-28T01:27:37;4.97;;;2.88;;
77220;SDS011;66217;50.004;8.266;2023-02-28T01:30:06;4.10;;;3.10;;
77220;SDS011;66217;50.004;8.266;2023-02-28T01:32:32;6.43;;;2.88;;
77220;SDS011;66217;50.004;8.266;2023-02-28T01:34:58;4.00;;;2.78;;
77220;SDS011;66217;50.004;8.266;2023-02-28T01:37:23;9.48;;;3.00;;
77220;SDS011;66217;50.004;8.266;2023-02-28T01:39:49;4.30;;;3.22;;
77220;SDS011;66217;50.004;8.266;2023-02-28T01:42:14;7.32;;;3.47;;
77220;SDS011;66217;50.004;8.266;2023-02-28T01:47:36;4.63;;;2.88;;
77220;SDS011;66217;50.004;8.266;2023-02-28T01:50:05;5.82;;;2.88;;
77220;SDS011;66217;50.004;8.266;2023-02-28T01:52:36;8.20;;;3.30;;
77220;SDS011;66217;50.004;8.266;2023-02-28T01:55:02;5.85;;;3.08;;
77220;SDS011;66217;50.004;8.266;2023-02-28T01:57:34;5.25;;;3.60;;
77220;SDS011;66217;50.004;8.266;2023-02-28T02:00:04;4.45;;;3.30;;
77220;SDS011;66217;50.004;8.266;2023-02-28T02:02:46;4.60;;;3.35;;
77220;SDS011;66217;50.004;8.266;2023-02-28T02:05:23;5.07;;;3.42;;
77220;SDS011;66217;50.004;8.266;2023-02-28T02:07:52;6.30;;;3.78;;
77220;SDS011;66217;50.004;8.266;2023-02-28T02:10:31;9.38;;;3.53;;
77220;SDS011;66217;50.004;8.266;2023-02-28T02:13:08;8.27;;;3.28;;
77220;SDS011;66217;50.004;8.266;2023-02-28T02:23:28;5.85;;;3.40;;
77220;SDS011;66217;50.004;8.266;2023-02-28T02:40:16;5.65;;;3.63;;
77220;SDS011;66217;50.004;8.266;2023-02-28T02:42:49;5.22;;;3.33;;
77220;SDS011;66217;50.004;8.266;2023-02-28T02:45:22;6.75;;;3.55;;
77220;SDS011;66217;50.004;8.266;2023-02-28T02:47:53;8.77;;;3.58;;
77220;SDS011;66217;50.004;8.266;2023-02-28T02:50:33;6.30;;;3.15;;
77220;SDS011;66217;50.004;8.266;2023-02-28T02:53:02;7.47;;;3.47;;
77220;SDS011;66217;50.004;8.266;2023-02-28T02:55:30;4.25;;;2.95;;
77220;SDS011;66217;50.004;8.266;2023-02-28T02:58:01;4.90;;;3.60;;
77220;SDS011;66217;50.004;8.266;2023-02-28T03:00:40;5.03;;;3.13;;
77220;SDS011;66217;50.004;8.266;2023-02-28T03:03:09;3.85;;;3.08;;
77220;SDS011;66217;50.004;8.266;2023-02-28T03:05:39;3.83;;;2.83;;
77220;SDS011;66217;50.004;8.266;2023-02-28T03:08:08;4.93;;;2.97;;
77220;SDS011;66217;50.004;8.266;2023-02-28T03:10:40;6.93;;;3.33;;
77220;SDS011;66217;50.004;8.266;2023-02-28T03:23:45;4.03;;;2.72;;
77220;SDS011;66217;50.004;8.266;2023-02-28T03:26:24;4.00;;;2.90;;
77220;SDS011;66217;50.004;8.266;2023-02-28T03:28:53;8.38;;;3.15;;
77220;SDS011;66217;50.004;8.266;2023-02-28T03:34:00;4.97;;;2.88;;
77220;SDS011;66217;50.004;8.266;2023-02-28T03:36:33;6.93;;;2.92;;
77220;SDS011;66217;50.004;8.266;2023-02-28T03:39:09;5.15;;;3.15;;
77220;SDS011;66217;50.004;8.266;2023-02-28T03:41:38;4.35;;;2.60;;
77220;SDS011;66217;50.004;8.266;2023-02-28T03:44:19;4.57;;;3.00;;
77220;SDS011;66217;50.004;8.266;2023-02-28T03:46:52;4.75;;;2.70;;
77220;SDS011;66217;50.004;8.266;2023-02-28T03:49:26;5.18;;;2.97;;
77220;SDS011;66217;50.004;8.266;2023-02-28T03:51:56;3.75;;;2.92;;
77220;SDS011;66217;50.004;8.266;2023-02-28T03:54:31;2.67;;;2.08;;
77220;SDS011;66217;50.004;8.266;2023-02-28T03:57:12;4.72;;;3.00;;
77220;SDS011;66217;50.004;8.266;2023-02-28T03:59:53;6.75;;;2.65;;
77220;SDS011;66217;50.004;8.266;2023-02-28T04:02:21;5.10;;;2.80;;
77220;SDS011;66217;50.004;8.266;2023-02-28T04:04:46;5.15;;;2.50;;
77220;SDS011;66217;50.004;8.266;2023-02-28T04:07:13;3.72;;;2.65;;
77220;SDS011;66217;50.004;8.266;2023-02-28T04:09:39;5.35;;;2.80;;
77220;SDS011;66217;50.004;8.266;2023-02-28T04:12:04;4.38;;;2.40;;
77220;SDS011;66217;50.004;8.266;2023-02-28T04:14:32;6.18;;;2.55;;
77220;SDS011;66217;50.004;8.266;2023-02-28T04:16:58;5.00;;;3.03;;
77220;SDS011;66217;50.004;8.266;2023-02-28T04:19:23;3.50;;;2.63;;
77220;SDS011;66217;50.004;8.266;2023-02-28T04:21:50;4.38;;;2.90;;
77220;SDS011;66217;50.004;8.266;2023-02-28T04:24:20;4.60;;;2.67;;
77220;SDS011;66217;50.004;8.266;2023-02-28T04:26:50;4.15;;;2.85;;
77220;SDS011;66217;50.004;8.266;2023-02-28T04:29:21;7.13;;;3.35;;
77220;SDS011;66217;50.004;8.266;2023-02-28T04:31:48;3.58;;;2.53;;
77220;SDS011;66217;50.004;8.266;2023-02-28T04:34:13;6.60;;;2.70;;
77220;SDS011;66217;50.004;8.266;2023-02-28T04:36:39;3.47;;;2.40;;
77220;SDS011;66217;50.004;8.266;2023-02-28T04:39:04;5.97;;;3.15;;
77220;SDS011;66217;50.004;8.266;2023-02-28T04:41:30;7.97;;;3.50;;
77220;SDS011;66217;50.004;8.266;2023-02-28T04:43:55;4.20;;;2.83;;
77220;SDS011;66217;50.004;8.266;2023-02-28T04:46:21;4.13;;;2.60;;
77220;SDS011;66217;50.004;8.266;2023-02-28T04:48:46;3.97;;;2.80;;
77220;SDS011;66217;50.004;8.266;2023-02-28T04:51:13;3.58;;;2.55;;
77220;SDS011;66217;50.004;8.266;2023-02-28T04:53:40;5.00;;;2.85;;
77220;SDS011;66217;50.004;8.266;2023-02-28T04:56:06;4.97;;;2.92;;
77220;SDS011;66217;50.004;8.266;2023-02-28T04:58:33;3.90;;;2.50;;
77220;SDS011;66217;50.004;8.266;2023-02-28T05:01:06;5.35;;;2.53;;
77220;SDS011;66217;50.004;8.266;2023-02-28T05:03:39;8.88;;;2.60;;
77220;SDS011;66217;50.004;8.266;2023-02-28T05:06:08;4.10;;;2.78;;
77220;SDS011;66217;50.004;8.266;2023-02-28T05:08:35;3.90;;;2.30;;
77220;SDS011;66217;50.004;8.266;2023-02-28T05:11:00;2.92;;;2.35;;
77220;SDS011;66217;50.004;8.266;2023-02-28T05:13:27;4.18;;;2.58;;
77220;SDS011;66217;50.004;8.266;2023-02-28T05:15:53;4.53;;;2.35;;
77220;SDS011;66217;50.004;8.266;2023-02-28T05:18:18;3.97;;;2.53;;
77220;SDS011;66217;50.004;8.266;2023-02-28T05:20:44;3.97;;;2.35;;
77220;SDS011;66217;50.004;8.266;2023-02-28T05:23:11;3.03;;;2.20;;
77220;SDS011;66217;50.004;8.266;2023-02-28T05:25:38;4.10;;;2.58;;
77220;SDS011;66217;50.004;8.266;2023-02-28T05:28:04;5.07;;;2.20;;
77220;SDS011;66217;50.004;8.266;2023-02-28T05:30:29;3.38;;;2.10;;
77220;SDS011;66217;50.004;8.266;2023-02-28T05:32:55;5.55;;;2.58;;
77220;SDS011;66217;50.004;8.266;2023-02-28T05:35:20;7.85;;;2.55;;
77220;SDS011;66217;50.004;8.266;2023-02-28T05:37:46;5.20;;;2.85;;
77220;SDS011;66217;50.004;8.266;2023-02-28T05:40:11;5.53;;;2.47;;
77220;SDS011;66217;50.004;8.266;2023-02-28T05:42:37;5.32;;;2.65;;
77220;SDS011;66217;50.004;8.266;2023-02-28T05:45:03;4.47;;;2.92;;
77220;SDS011;66217;50.004;8.266;2023-02-28T05:47:30;4.88;;;2.72;;
77220;SDS011;66217;50.004;8.266;2023-02-28T05:49:55;6.95;;;3.00;;
77220;SDS011;66217;50.004;8.266;2023-02-28T05:52:21;4.10;;;2.42;;
77220;SDS011;66217;50.004;8.266;2023-02-28T05:54:46;6.32;;;2.58;;
77220;SDS011;66217;50.004;8.266;2023-02-28T05:57:12;4.40;;;2.40;;
77220;SDS011;66217;50.004;8.266;2023-02-28T05:59:38;7.25;;;2.75;;
77220;SDS011;66217;50.004;8.266;2023-02-28T06:02:05;6.22;;;2.55;;
77220;SDS011;66217;50.004;8.266;2023-02-28T06:04:31;9.20;;;3.35;;
77220;SDS011;66217;50.004;8.266;2023-02-28T06:06:57;6.13;;;2.75;;
77220;SDS011;66217;50.004;8.266;2023-02-28T06:09:23;7.07;;;2.55;;
77220;SDS011;66217;50.004;8.266;2023-02-28T06:11:48;6.18;;;2.75;;
77220;SDS011;66217;50.004;8.266;2023-02-28T06:14:14;7.75;;;2.75;;
77220;SDS011;66217;50.004;8.266;2023-02-28T06:16:41;4.43;;;2.47;;
77220;SDS011;66217;50.004;8.266;2023-02-28T06:19:08;5.97;;;2.97;;
77220;SDS011;66217;50.004;8.266;2023-02-28T06:21:34;6.05;;;2.65;;
77220;SDS011;66217;50.004;8.266;2023-02-28T06:23:59;5.07;;;2.13;;
77220;SDS011;66217;50.004;8.266;2023-02-28T06:26:25;3.35;;;2.60;;
77220;SDS011;66217;50.004;8.266;2023-02-28T06:28:50;5.38;;;3.10;;
77220;SDS011;66217;50.004;8.266;2023-02-28T06:31:16;12.25;;;3.00;;
77220;SDS011;66217;50.004;8.266;2023-02-28T06:33:43;6.72;;;2.90;;
77220;SDS011;66217;50.004;8.266;2023-02-28T06:36:08;7.80;;;2.67;;
77220;SDS011;66217;50.004;8.266;2023-02-28T06:38:35;4.40;;;2.75;;
77220;SDS011;66217;50.004;8.266;2023-02-28T06:41:00;4.78;;;2.55;;
77220;SDS011;66217;50.004;8.266;2023-02-28T06:43:30;4.95;;;2.78;;
77220;SDS011;66217;50.004;8.266;2023-02-28T06:45:58;9.52;;;2.78;;
77220;SDS011;66217;50.004;8.266;2023-02-28T06:48:25;4.93;;;2.55;;
77220;SDS011;66217;50.004;8.266;2023-02-28T06:50:51;5.45;;;2.85;;
77220;SDS011;66217;50.004;8.266;2023-02-28T06:53:16;3.78;;;2.78;;
77220;SDS011;66217;50.004;8.266;2023-02-28T06:55:42;4.43;;;2.80;;
77220;SDS011;66217;50.004;8.266;2023-02-28T06:58:08;6.90;;;2.50;;
77220;SDS011;66217;50.004;8.266;2023-02-28T07:00:44;4.60;;;2.75;;
77220;SDS011;66217;50.004;8.266;2023-02-28T07:03:10;12.60;;;2.88;;
77220;SDS011;66217;50.004;8.266;2023-02-28T07:05:36;7.13;;;2.63;;
77220;SDS011;66217;50.004;8.266;2023-02-28T07:08:03;8.27;;;2.65;;
77220;SDS011;66217;50.004;8.266;2023-02-28T07:10:29;6.85;;;2.45;;
77220;SDS011;66217;50.004;8.266;2023-02-28T07:12:55;4.60;;;2.70;;
77220;SDS011;66217;50.004;8.266;2023-02-28T07:15:20;5.40;;;2.17;;
77220;SDS011;66217;50.004;8.266;2023-02-28T07:17:46;6.00;;;2.35;;
77220;SDS011;66217;50.004;8.266;2023-02-28T07:20:11;4.35;;;2.08;;
77220;SDS011;66217;50.004;8.266;2023-02-28T07:22:37;4.00;;;2.38;;
77220;SDS011;66217;50.004;8.266;2023-02-28T07:25:04;5.10;;;2.60;;
77220;SDS011;66217;50.004;8.266;2023-02-28T07:27:30;3.10;;;2.35;;
77220;SDS011;66217;50.004;8.266;2023-02-28T07:29:55;7.20;;;3.15;;
77220;SDS011;66217;50.004;8.266;2023-02-28T07:32:21;3.55;;;2.28;;
77220;SDS011;66217;50.004;8.266;2023-02-28T07:34:47;4.60;;;2.50;;
77220;SDS011;66217;50.004;8.266;2023-02-28T07:37:13;5.25;;;2.78;;
77220;SDS011;66217;50.004;8.266;2023-02-28T07:39:39;4.43;;;3.08;;
77220;SDS011;66217;50.004;8.266;2023-02-28T07:42:07;6.75;;;3.15;;
77220;SDS011;66217;50.004;8.266;2023-02-28T07:44:35;4.70;;;2.45;;
77220;SDS011;66217;50.004;8.266;2023-02-28T07:47:05;7.57;;;3.17;;
77220;SDS011;66217;50.004;8.266;2023-02-28T07:49:38;6.72;;;2.92;;
77220;SDS011;66217;50.004;8.266;2023-02-28T07:52:04;4.40;;;2.72;;
77220;SDS011;66217;50.004;8.266;2023-02-28T07:54:31;4.43;;;2.40;;
77220;SDS011;66217;50.004;8.266;2023-02-28T07:56:57;5.80;;;3.00;;
77220;SDS011;66217;50.004;8.266;2023-02-28T07:59:23;6.90;;;2.97;;
77220;SDS011;66217;50.004;8.266;2023-02-28T08:01:48;5.43;;;2.53;;
77220;SDS011;66217;50.004;8.266;2023-02-28T08:04:18;10.27;;;2.92;;
77220;SDS011;66217;50.004;8.266;2023-02-28T08:06:43;5.57;;;3.30;;
77220;SDS011;66217;50.004;8.266;2023-02-28T08:09:09;5.38;;;3.00;;
77220;SDS011;66217;50.004;8.266;2023-02-28T08:11:34;4.88;;;3.05;;
77220;SDS011;66217;50.004;8.266;2023-02-28T08:14:01;4.07;;;2.83;;
77220;SDS011;66217;50.004;8.266;2023-02-28T08:16:26;6.85;;;2.88;;
77220;SDS011;66217;50.004;8.266;2023-02-28T08:18:52;4.82;;;2.95;;
77220;SDS011;66217;50.004;8.266;2023-02-28T08:21:19;3.53;;;2.25;;
77220;SDS011;66217;50.004;8.266;2023-02-28T08:23:48;5.05;;;2.88;;
77220;SDS011;66217;50.004;8.266;2023-02-28T08:26:15;4.65;;;3.20;;
77220;SDS011;66217;50.004;8.266;2023-02-28T08:28:41;5.82;;;3.13;;
77220;SDS011;66217;50.004;8.266;2023-02-28T08:31:08;5.00;;;3.00;;
77220;SDS011;66217;50.004;8.266;2023-02-28T08:33:35;4.90;;;3.35;;
77220;SDS011;66217;50.004;8.266;2023-02-28T08:36:01;3.83;;;2.50;;
77220;SDS011;66217;50.004;8.266;2023-02-28T08:38:27;6.05;;;3.38;;
77220;SDS011;66217;50.004;8.266;2023-02-28T08:40:59;4.10;;;2.45;;
77220;SDS011;66217;50.004;8.266;2023-02-28T08:43:26;3.72;;;2.95;;
77220;SDS011;66217;50.004;8.266;2023-02-28T08:45:52;4.45;;;3.03;;
77220;SDS011;66217;50.004;8.266;2023-02-28T08:48:17;6.25;;;3.20;;
77220;SDS011;66217;50.004;8.266;2023-02-28T08:50:43;6.35;;;3.15;;
77220;SDS011;66217;50.004;8.266;2023-02-28T08:53:08;4.75;;;3.30;;
77220;SDS011;66217;50.004;8.266;2023-02-28T08:55:34;4.22;;;3.15;;
77220;SDS011;66217;50.004;8.266;2023-02-28T08:57:59;3.63;;;2.75;;
77220;SDS011;66217;50.004;8.266;2023-02-28T09:00:26;5.43;;;3.38;;
77220;SDS011;66217;50.004;8.266;2023-02-28T09:02:51;6.82;;;3.83;;
77220;SDS011;66217;50.004;8.266;2023-02-28T09:05:17;7.43;;;3.25;;
77220;SDS011;66217;50.004;8.266;2023-02-28T09:07:44;4.93;;;2.72;;
77220;SDS011;66217;50.004;8.266;2023-02-28T09:10:10;4.85;;;3.20;;
77220;SDS011;66217;50.004;8.266;2023-02-28T09:12:35;4.53;;;2.90;;
77220;SDS011;66217;50.004;8.266;2023-02-28T09:15:01;9.10;;;3.47;;
77220;SDS011;66217;50.004;8.266;2023-02-28T09:17:27;5.35;;;3.50;;
77220;SDS011;66217;50.004;8.266;2023-02-28T09:19:53;8.32;;;3.30;;
77220;SDS011;66217;50.004;8.266;2023-02-28T09:22:18;4.72;;;3.20;;
77220;SDS011;66217;50.004;8.266;2023-02-28T09:24:44;5.90;;;2.95;;
77220;SDS011;66217;50.004;8.266;2023-02-28T09:27:10;6.15;;;3.78;;
77220;SDS011;66217;50.004;8.266;2023-02-28T09:29:35;5.93;;;3.63;;
77220;SDS011;66217;50.004;8.266;2023-02-28T09:32:01;3.88;;;2.53;;
77220;SDS011;66217;50.004;8.266;2023-02-28T09:34:27;6.65;;;3.25;;
77220;SDS011;66217;50.004;8.266;2023-02-28T09:36:52;7.65;;;3.05;;
77220;SDS011;66217;50.004;8.266;2023-02-28T09:39:20;4.88;;;3.05;;
77220;SDS011;66217;50.004;8.266;2023-02-28T09:41:47;4.85;;;3.17;;
77220;SDS011;66217;50.004;8.266;2023-02-28T09:46:54;5.07;;;3.17;;
77220;SDS011;66217;50.004;8.266;2023-02-28T09:49:23;8.82;;;2.90;;
77220;SDS011;66217;50.004;8.266;2023-02-28T09:54:19;5.88;;;3.75;;
77220;SDS011;66217;50.004;8.266;2023-02-28T09:56:50;5.38;;;3.15;;
77220;SDS011;66217;50.004;8.266;2023-02-28T09:59:42;6.80;;;3.40;;
77220;SDS011;66217;50.004;8.266;2023-02-28T10:05:21;5.38;;;3.60;;
77220;SDS011;66217;50.004;8.266;2023-02-28T10:08:02;4.45;;;3.15;;
77220;SDS011;66217;50.004;8.266;2023-02-28T10:10:40;5.43;;;3.35;;
77220;SDS011;66217;50.004;8.266;2023-02-28T10:13:13;4.90;;;3.40;;
77220;SDS011;66217;50.004;8.266;2023-02-28T10:15:41;5.55;;;3.35;;
77220;SDS011;66217;50.004;8.266;2023-02-28T10:18:10;4.03;;;2.80;;
77220;SDS011;66217;50.004;8.266;2023-02-28T10:20:39;7.90;;;3.13;;
77220;SDS011;66217;50.004;8.266;2023-02-28T10:25:53;4.97;;;3.40;;
77220;SDS011;66217;50.004;8.266;2023-02-28T10:28:24;4.38;;;3.00;;
77220;SDS011;66217;50.004;8.266;2023-02-28T10:30:51;7.10;;;3.35;;
77220;SDS011;66217;50.004;8.266;2023-02-28T10:35:52;5.97;;;3.22;;
77220;SDS011;66217;50.004;8.266;2023-02-28T10:38:22;5.68;;;3.20;;
77220;SDS011;66217;50.004;8.266;2023-02-28T10:40:50;5.57;;;3.75;;
77220;SDS011;66217;50.004;8.266;2023-02-28T10:45:55;7.10;;;3.50;;
77220;SDS011;66217;50.004;8.266;2023-02-28T10:51:10;5.28;;;3.92;;
77220;SDS011;66217;50.004;8.266;2023-02-28T10:56:21;6.53;;;3.00;;
77220;SDS011;66217;50.004;8.266;2023-02-28T10:58:49;4.63;;;2.90;;
77220;SDS011;66217;50.004;8.266;2023-02-28T11:01:16;7.38;;;4.40;;
77220;SDS011;66217;50.004;8.266;2023-02-28T11:03:57;5.68;;;3.15;;
77220;SDS011;66217;50.004;8.266;2023-02-28T11:06:30;6.80;;;4.13;;
77220;SDS011;66217;50.004;8.266;2023-02-28T11:08:58;4.90;;;3.65;;
77220;SDS011;66217;50.004;8.266;2023-02-28T11:11:25;7.95;;;3.78;;
77220;SDS011;66217;50.004;8.266;2023-02-28T11:13:53;6.82;;;3.58;;
77220;SDS011;66217;50.004;8.266;2023-02-28T11:16:20;4.97;;;3.10;;
77220;SDS011;66217;50.004;8.266;2023-02-28T11:18:50;7.38;;;4.03;;
77220;SDS011;66217;50.004;8.266;2023-02-28T11:21:18;5.38;;;3.25;;
77220;SDS011;66217;50.004;8.266;2023-02-28T11:24:00;4.85;;;3.22;;
77220;SDS011;66217;50.004;8.266;2023-02-28T11:26:46;8.77;;;4.20;;
77220;SDS011;66217;50.004;8.266;2023-02-28T11:29:24;8.75;;;3.75;;
77220;SDS011;66217;50.004;8.266;2023-02-28T11:35:03;5.65;;;3.80;;
77220;SDS011;66217;50.004;8.266;2023-02-28T11:37:35;7.15;;;3.47;;
77220;SDS011;66217;50.004;8.266;2023-02-28T11:40:01;5.22;;;3.13;;
77220;SDS011;66217;50.004;8.266;2023-02-28T11:53:14;8.57;;;4.60;;
77220;SDS011;66217;50.004;8.266;2023-02-28T11:55:45;8.70;;;4.10;;
77220;SDS011;66217;50.004;8.266;2023-02-28T11:58:29;7.47;;;3.60;;
77220;SDS011;66217;50.004;8.266;2023-02-28T12:01:09;6.60;;;3.83;;
77220;SDS011;66217;50.004;8.266;2023-02-28T12:11:29;4.35;;;3.20;;
77220;SDS011;66217;50.004;8.266;2023-02-28T12:16:27;6.10;;;3.20;;
77220;SDS011;66217;50.004;8.266;2023-02-28T12:27:39;7.25;;;3.75;;
77220;SDS011;66217;50.004;8.266;2023-02-28T12:35:14;6.53;;;4.30;;
77220;SDS011;66217;50.004;8.266;2023-02-28T12:38:25;5.43;;;4.13;;
77220;SDS011;66217;50.004;8.266;2023-02-28T12:43:12;5.35;;;3.70;;
77220;SDS011;66217;50.004;8.266;2023-02-28T12:45:50;5.72;;;4.25;;
77220;SDS011;66217;50.004;8.266;2023-02-28T12:48:24;7.55;;;4.55;;
77220;SDS011;66217;50.004;8.266;2023-02-28T12:50:52;9.73;;;4.32;;
77220;SDS011;66217;50.004;8.266;2023-02-28T12:53:22;10.68;;;4.57;;
77220;SDS011;66217;50.004;8.266;2023-02-28T12:56:04;16.30;;;4.30;;
77220;SDS011;66217;50.004;8.266;2023-02-28T12:58:45;6.57;;;4.85;;
77220;SDS011;66217;50.004;8.266;2023-02-28T13:01:32;8.30;;;4.00;;
77220;SDS011;66217;50.004;8.266;2023-02-28T13:07:25;5.45;;;3.90;;
77220;SDS011;66217;50.004;8.266;2023-02-28T13:10:13;6.80;;;4.07;;
77220;SDS011;66217;50.004;8.266;2023-02-28T13:12:51;5.85;;;3.55;;
77220;SDS011;66217;50.004;8.266;2023-02-28T13:17:48;5.93;;;4.35;;
77220;SDS011;66217;50.004;8.266;2023-02-28T13:20:19;8.68;;;4.20;;
77220;SDS011;66217;50.004;8.266;2023-02-28T13:22:54;8.43;;;4.70;;
77220;SDS011;66217;50.004;8.266;2023-02-28T13:27:46;7.47;;;4.15;;
77220;SDS011;66217;50.004;8.266;2023-02-28T13:38:45;7.30;;;4.32;;
77220;SDS011;66217;50.004;8.266;2023-02-28T13:44:04;11.05;;;4.57;;
77220;SDS011;66217;50.004;8.266;2023-02-28T13:46:31;6.72;;;4.15;;
77220;SDS011;66217;50.004;8.266;2023-02-28T13:55:02;8.07;;;4.32;;
77220;SDS011;66217;50.004;8.266;2023-02-28T13:57:52;10.80;;;4.45;;
77220;SDS011;66217;50.004;8.266;2023-02-28T14:03:24;6.35;;;4.25;;
77220;SDS011;66217;50.004;8.266;2023-02-28T14:06:15;13.93;;;4.55;;
77220;SDS011;66217;50.004;8.266;2023-02-28T14:11:54;7.38;;;3.78;;
77220;SDS011;66217;50.004;8.266;2023-02-28T14:17:04;10.68;;;4.90;;
77220;SDS011;66217;50.004;8.266;2023-02-28T14:19:31;7.97;;;4.82;;
77220;SDS011;66217;50.004;8.266;2023-02-28T14:22:38;7.53;;;4.63;;
77220;SDS011;66217;50.004;8.266;2023-02-28T14:30:29;7.55;;;4.40;;
77220;SDS011;66217;50.004;8.266;2023-02-28T14:33:11;7.22;;;4.70;;
77220;SDS011;66217;50.004;8.266;2023-02-28T14:35:53;12.75;;;4.50;;
77220;SDS011;66217;50.004;8.266;2023-02-28T14:38:39;8.80;;;4.57;;
77220;SDS011;66217;50.004;8.266;2023-02-28T14:41:24;9.45;;;4.97;;
77220;SDS011;66217;50.004;8.266;2023-02-28T14:44:01;8.70;;;4.30;;
77220;SDS011;66217;50.004;8.266;2023-02-28T14:46:38;12.80;;;4.78;;
77220;SDS011;66217;50.004;8.266;2023-02-28T14:49:05;7.03;;;3.83;;
77220;SDS011;66217;50.004;8.266;2023-02-28T14:51:32;7.65;;;5.13;;
77220;SDS011;66217;50.004;8.266;2023-02-28T14:53:59;7.75;;;4.70;;
77220;SDS011;66217;50.004;8.266;2023-02-28T14:56:37;7.15;;;4.47;;
77220;SDS011;66217;50.004;8.266;2023-02-28T14:59:03;6.72;;;4.25;;
77220;SDS011;66217;50.004;8.266;2023-02-28T15:01:29;8.93;;;4.28;;
77220;SDS011;66217;50.004;8.266;2023-02-28T15:03:59;10.18;;;4.22;;
77220;SDS011;66217;50.004;8.266;2023-02-28T15:06:32;9.45;;;4.65;;
77220;SDS011;66217;50.004;8.266;2023-02-28T15:09:13;8.27;;;4.20;;
77220;SDS011;66217;50.004;8.266;2023-02-28T15:11:53;8.45;;;4.93;;
77220;SDS011;66217;50.004;8.266;2023-02-28T15:14:20;10.18;;;4.78;;
77220;SDS011;66217;50.004;8.266;2023-02-28T15:16:48;8.77;;;4.97;;
77220;SDS011;66217;50.004;8.266;2023-02-28T15:19:21;6.43;;;4.20;;
77220;SDS011;66217;50.004;8.266;2023-02-28T15:21:49;8.55;;;4.75;;
77220;SDS011;66217;50.004;8.266;2023-02-28T15:24:37;13.38;;;4.55;;
77220;SDS011;66217;50.004;8.266;2023-02-28T15:27:29;7.05;;;4.50;;
77220;SDS011;66217;50.004;8.266;2023-02-28T15:29:54;7.53;;;4.43;;
77220;SDS011;66217;50.004;8.266;2023-02-28T15:32:32;10.02;;;4.82;;
77220;SDS011;66217;50.004;8.266;2023-02-28T15:34:59;8.02;;;4.43;;
77220;SDS011;66217;50.004;8.266;2023-02-28T15:45:35;6.38;;;4.50;;
77220;SDS011;66217;50.004;8.266;2023-02-28T15:48:05;7.60;;;4.50;;
77220;SDS011;66217;50.004;8.266;2023-02-28T15:50:49;8.38;;;4.50;;
77220;SDS011;66217;50.004;8.266;2023-02-28T15:53:19;7.97;;;4.70;;
77220;SDS011;66217;50.004;8.266;2023-02-28T15:55:52;8.02;;;5.00;;
77220;SDS011;66217;50.004;8.266;2023-02-28T15:58:19;7.80;;;4.90;;
77220;SDS011;66217;50.004;8.266;2023-02-28T16:00:59;6.13;;;3.83;;
77220;SDS011;66217;50.004;8.266;2023-02-28T16:03:44;10.45;;;5.30;;
77220;SDS011;66217;50.004;8.266;2023-02-28T16:08:52;6.88;;;4.95;;
77220;SDS011;66217;50.004;8.266;2023-02-28T16:11:18;6.90;;;4.53;;
77220;SDS011;66217;50.004;8.266;2023-02-28T16:13:44;8.00;;;5.32;;
77220;SDS011;66217;50.004;8.266;2023-02-28T16:16:14;7.00;;;4.03;;
77220;SDS011;66217;50.004;8.266;2023-02-28T16:18:41;10.32;;;4.65;;
77220;SDS011;66217;50.004;8.266;2023-02-28T16:21:08;11.43;;;5.03;;
77220;SDS011;66217;50.004;8.266;2023-02-28T16:23:33;8.48;;;4.97;;
77220;SDS011;66217;50.004;8.266;2023-02-28T16:25:59;7.68;;;4.78;;
77220;SDS011;66217;50.004;8.266;2023-02-28T16:28:27;6.43;;;4.35;;
77220;SDS011;66217;50.004;8.266;2023-02-28T16:30:57;8.27;;;4.75;;
77220;SDS011;66217;50.004;8.266;2023-02-28T16:33:25;8.77;;;5.35;;
77220;SDS011;66217;50.004;8.266;2023-02-28T16:35:50;8.65;;;5.00;;
77220;SDS011;66217;50.004;8.266;2023-02-28T16:38:16;9.38;;;4.88;;
77220;SDS011;66217;50.004;8.266;2023-02-28T16:40:41;7.57;;;4.72;;
77220;SDS011;66217;50.004;8.266;2023-02-28T16:43:07;9.15;;;4.50;;
77220;SDS011;66217;50.004;8.266;2023-02-28T16:45:35;9.50;;;4.03;;
77220;SDS011;66217;50.004;8.266;2023-02-28T16:48:00;9.63;;;5.20;;
77220;SDS011;66217;50.004;8.266;2023-02-28T16:50:27;11.13;;;4.72;;
77220;SDS011;66217;50.004;8.266;2023-02-28T16:52:54;8.32;;;4.43;;
77220;SDS011;66217;50.004;8.266;2023-02-28T16:55:20;8.00;;;4.32;;
77220;SDS011;66217;50.004;8.266;2023-02-28T16:57:49;8.32;;;4.78;;
77220;SDS011;66217;50.004;8.266;2023-02-28T17:00:16;8.52;;;4.05;;
77220;SDS011;66217;50.004;8.266;2023-02-28T17:02:42;18.13;;;5.15;;
77220;SDS011;66217;50.004;8.266;2023-02-28T17:05:08;11.13;;;5.13;;
77220;SDS011;66217;50.004;8.266;2023-02-28T17:07:35;8.93;;;4.72;;
77220;SDS011;66217;50.004;8.266;2023-02-28T17:10:01;7.40;;;4.45;;
77220;SDS011;66217;50.004;8.266;2023-02-28T17:12:33;10.30;;;5.13;;
77220;SDS011;66217;50.004;8.266;2023-02-28T17:14:59;9.05;;;4.57;;
77220;SDS011;66217;50.004;8.266;2023-02-28T17:17:24;8.02;;;4.57;;
77220;SDS011;66217;50.004;8.266;2023-02-28T17:19:50;6.93;;;4.47;;
77220;SDS011;66217;50.004;8.266;2023-02-28T17:22:15;8.80;;;5.18;;
77220;SDS011;66217;50.004;8.266;2023-02-28T17:24:41;12.13;;;5.20;;
77220;SDS011;66217;50.004;8.266;2023-02-28T17:27:09;7.03;;;4.35;;
77220;SDS011;66217;50.004;8.266;2023-02-28T17:29:36;8.32;;;4.97;;
77220;SDS011;66217;50.004;8.266;2023-02-28T17:32:02;9.38;;;4.80;;